sensor_id;sensor_type;location;lat;lon;timestamp;temperature;humidity
9885;DHT22;4981;50.966;4.842;2024-03-23T00:55:38;6.90;1.00
9885;DHT22;4981;50.966;4.842;2024-03-23T00:58:05;6.90;1.00
9885;DHT22;4981;50.966;4.842;2024-03-23T01:00:31;6.70;1.00
9885;DHT22;4981;50.966;4.842;2024-03-23T01:02:58;6.70;1.00
9885;DHT22;4981;50.966;4.842;2024-03-23T01:05:24;6.60;1.00
9885;DHT22;4981;50.966;4.842;2024-03-23T01:07:51;6.50;1.00
9885;DHT22;4981;50.966;4.842;2024-03-23T01:10:17;6.60;1.00
9885;DHT22;4981;50.966;4.842;2024-03-23T01:12:45;6.70;1.00
9885;DHT22;4981;50.966;4.842;2024-03-23T01:15:11;6.80;1.00
9885;DHT22;4981;50.966;4.842;2024-03-23T01:17:38;6.80;1.00
9885;DHT22;4981;50.966;4.842;2024-03-23T01:20:05;8.40;1.00
9885;DHT22;4981;50.966;4.842;2024-03-23T01:22:32;6.70;1.00
9885;DHT22;4981;50.966;4.842;2024-03-23T01:24:58;6.70;1.00
9885;DHT22;4981;50.966;4.842;2024-03-23T01:27:25;6.70;1.00
9885;DHT22;4981;50.966;4.842;2024-03-23T01:29:52;6.70;1.00
9885;DHT22;4981;50.966;4.842;2024-03-23T01:32:20;6.50;1.00
9885;DHT22;4981;50.966;4.842;2024-03-23T01:34:46;6.50;1.00
9885;DHT22;4981;50.966;4.842;2024-03-23T01:37:12;6.30;1.00
9885;DHT22;4981;50.966;4.842;2024-03-23T01:39:38;6.50;1.00
9885;DHT22;4981;50.966;4.842;2024-03-23T01:42:05;6.40;1.00
9885;DHT22;4981;50.966;4.842;2024-03-23T01:44:33;6.50;1.00
9885;DHT22;4981;50.966;4.842;2024-03-23T01:47:02;6.60;1.00
9885;DHT22;4981;50.966;4.842;2024-03-23T01:49:28;6.30;1.00
9885;DHT22;4981;50.966;4.842;2024-03-23T01:51:55;6.50;1.00
9885;DHT22;4981;50.966;4.842;2024-03-23T01:54:21;6.50;1.00
9885;DHT22;4981;50.966;4.842;2024-03-23T01:56:48;6.50;1.00
9885;DHT22;4981;50.966;4.842;2024-03-23T01:59:15;6.50;1.00
9885;DHT22;4981;50.966;4.842;2024-03-23T02:01:41;6.50;1.00
9885;DHT22;4981;50.966;4.842;2024-03-23T02:04:09;6.40;1.00
9885;DHT22;4981;50.966;4.842;2024-03-23T02:06:36;6.50;1.00
9885;DHT22;4981;50.966;4.842;2024-03-23T02:09:02;6.50;1.00
9885;DHT22;4981;50.966;4.842;2024-03-23T02:11:31;6.50;1.00
9885;DHT22;4981;50.966;4.842;2024-03-23T02:13:57;6.50;1.00
9885;DHT22;4981;50.966;4.842;2024-03-23T02:16:24;6.40;1.00
9885;DHT22;4981;50.966;4.842;2024-03-23T02:18:50;6.60;1.00
9885;DHT22;4981;50.966;4.842;2024-03-23T02:21:18;6.50;1.00
9885;DHT22;4981;50.966;4.842;2024-03-23T02:23:45;6.50;1.00
9885;DHT22;4981;50.966;4.842;2024-03-23T02:26:12;6.30;1.00
9885;DHT22;4981;50.966;4.842;2024-03-23T02:28:39;6.20;1.00
9885;DHT22;4981;50.966;4.842;2024-03-23T02:31:06;6.20;1.00
9885;DHT22;4981;50.966;4.842;2024-03-23T02:33:32;6.20;1.00
9885;DHT22;4981;50.966;4.842;2024-03-23T02:36:00;6.10;1.00
9885;DHT22;4981;50.966;4.842;2024-03-23T02:38:26;6.30;1.00
9885;DHT22;4981;50.966;4.842;2024-03-23T02:40:54;6.30;1.00
9885;DHT22;4981;50.966;4.842;2024-03-23T02:43:20;6.30;1.00
9885;DHT22;4981;50.966;4.842;2024-03-23T02:45:47;6.40;1.00
9885;DHT22;4981;50.966;4.842;2024-03-23T02:48:13;6.40;1.00
9885;DHT22;4981;50.966;4.842;2024-03-23T02:50:40;6.40;1.00
9885;DHT22;4981;50.966;4.842;2024-03-23T02:53:06;6.40;1.00
9885;DHT22;4981;50.966;4.842;2024-03-23T02:55:33;6.40;1.00
9885;DHT22;4981;50.966;4.842;2024-03-23T02:58:01;6.50;1.00
9885;DHT22;4981;50.966;4.842;2024-03-23T03:00:28;6.50;1.00
9885;DHT22;4981;50.966;4.842;2024-03-23T03:02:54;6.50;1.00
9885;DHT22;4981;50.966;4.842;2024-03-23T03:05:21;6.50;1.00
9885;DHT22;4981;50.966;4.842;2024-03-23T03:07:47;6.60;1.00
9885;DHT22;4981;50.966;4.842;2024-03-23T03:10:15;6.50;1.00
9885;DHT22;4981;50.966;4.842;2024-03-23T03:12:41;6.60;1.00
9885;DHT22;4981;50.966;4.842;2024-03-23T03:15:10;6.50;1.00
9885;DHT22;4981;50.966;4.842;2024-03-23T03:17:36;6.50;1.00
9885;DHT22;4981;50.966;4.842;2024-03-23T03:20:03;6.50;1.00
9885;DHT22;4981;50.966;4.842;2024-03-23T03:22:30;6.60;1.00
9885;DHT22;4981;50.966;4.842;2024-03-23T03:24:57;6.60;1.00
9885;DHT22;4981;50.966;4.842;2024-03-23T03:27:23;6.60;1.00
9885;DHT22;4981;50.966;4.842;2024-03-23T03:29:50;6.60;1.00
9885;DHT22;4981;50.966;4.842;2024-03-23T03:32:17;6.60;1.00
9885;DHT22;4981;50.966;4.842;2024-03-23T03:34:44;6.60;1.00
9885;DHT22;4981;50.966;4.842;2024-03-23T03:37:10;6.60;1.00
9885;DHT22;4981;50.966;4.842;2024-03-23T03:39:37;6.60;1.00
9885;DHT22;4981;50.966;4.842;2024-03-23T03:42:03;6.60;1.00
9885;DHT22;4981;50.966;4.842;2024-03-23T03:44:32;6.50;1.00
9885;DHT22;4981;50.966;4.842;2024-03-23T03:47:00;6.50;1.00
9885;DHT22;4981;50.966;4.842;2024-03-23T03:49:29;6.50;1.00
9885;DHT22;4981;50.966;4.842;2024-03-23T03:51:54;6.60;1.00
9885;DHT22;4981;50.966;4.842;2024-03-23T03:54:21;6.50;1.00
9885;DHT22;4981;50.966;4.842;2024-03-23T03:56:47;6.50;1.00
9885;DHT22;4981;50.966;4.842;2024-03-23T03:59:15;6.50;1.00
9885;DHT22;4981;50.966;4.842;2024-03-23T04:01:41;6.50;1.00
9885;DHT22;4981;50.966;4.842;2024-03-23T04:04:08;6.40;1.00
9885;DHT22;4981;50.966;4.842;2024-03-23T04:06:35;6.40;1.00
9885;DHT22;4981;50.966;4.842;2024-03-23T04:09:02;6.50;1.00
9885;DHT22;4981;50.966;4.842;2024-03-23T04:11:28;6.50;1.00
9885;DHT22;4981;50.966;4.842;2024-03-23T04:13:55;8.30;1.00
9885;DHT22;4981;50.966;4.842;2024-03-23T04:16:26;6.40;1.00
9885;DHT22;4981;50.966;4.842;2024-03-23T04:18:53;6.60;1.00
9885;DHT22;4981;50.966;4.842;2024-03-23T04:21:19;6.50;1.00
9885;DHT22;4981;50.966;4.842;2024-03-23T04:23:48;6.40;1.00
9885;DHT22;4981;50.966;4.842;2024-03-23T04:26:14;6.40;1.00
9885;DHT22;4981;50.966;4.842;2024-03-23T04:28:41;6.60;1.00
9885;DHT22;4981;50.966;4.842;2024-03-23T04:31:08;6.50;1.00
9885;DHT22;4981;50.966;4.842;2024-03-23T04:33:36;6.50;1.00
9885;DHT22;4981;50.966;4.842;2024-03-23T04:36:02;6.40;1.00
9885;DHT22;4981;50.966;4.842;2024-03-23T04:38:29;6.50;1.00
9885;DHT22;4981;50.966;4.842;2024-03-23T04:40:58;6.50;1.00
9885;DHT22;4981;50.966;4.842;2024-03-23T04:43:26;6.40;1.00
9885;DHT22;4981;50.966;4.842;2024-03-23T04:45:53;6.40;1.00
9885;DHT22;4981;50.966;4.842;2024-03-23T04:48:21;6.40;1.00
9885;DHT22;4981;50.966;4.842;2024-03-23T04:50:48;6.30;1.00
9885;DHT22;4981;50.966;4.842;2024-03-23T04:53:16;6.30;1.00
9885;DHT22;4981;50.966;4.842;2024-03-23T04:55:43;6.30;1.00
9885;DHT22;4981;50.966;4.842;2024-03-23T04:58:11;6.30;1.00
9885;DHT22;4981;50.966;4.842;2024-03-23T05:00:37;6.40;1.00
9885;DHT22;4981;50.966;4.842;2024-03-23T05:03:04;6.40;1.00
9885;DHT22;4981;50.966;4.842;2024-03-23T05:05:31;6.30;1.00
9885;DHT22;4981;50.966;4.842;2024-03-23T05:07:57;6.50;1.00
9885;DHT22;4981;50.966;4.842;2024-03-23T05:10:25;6.30;1.00
9885;DHT22;4981;50.966;4.842;2024-03-23T05:12:51;6.30;1.00
9885;DHT22;4981;50.966;4.842;2024-03-23T05:15:19;6.30;1.00
9885;DHT22;4981;50.966;4.842;2024-03-23T05:17:45;6.30;1.00
9885;DHT22;4981;50.966;4.842;2024-03-23T05:20:12;6.20;1.00
9885;DHT22;4981;50.966;4.842;2024-03-23T05:22:38;6.20;1.00
9885;DHT22;4981;50.966;4.842;2024-03-23T05:25:05;5.10;1.00
9885;DHT22;4981;50.966;4.842;2024-03-23T05:27:32;6.20;1.00
9885;DHT22;4981;50.966;4.842;2024-03-23T05:29:59;6.20;1.00
9885;DHT22;4981;50.966;4.842;2024-03-23T05:32:27;6.30;1.00
9885;DHT22;4981;50.966;4.842;2024-03-23T05:34:54;6.20;1.00
9885;DHT22;4981;50.966;4.842;2024-03-23T05:37:22;6.30;1.00
9885;DHT22;4981;50.966;4.842;2024-03-23T05:39:49;6.30;1.00
9885;DHT22;4981;50.966;4.842;2024-03-23T05:42:15;6.40;1.00
9885;DHT22;4981;50.966;4.842;2024-03-23T05:44:43;6.40;1.00
9885;DHT22;4981;50.966;4.842;2024-03-23T05:47:10;6.30;1.00
9885;DHT22;4981;50.966;4.842;2024-03-23T05:49:40;5.20;1.00
9885;DHT22;4981;50.966;4.842;2024-03-23T05:52:07;6.30;1.00
9885;DHT22;4981;50.966;4.842;2024-03-23T05:54:34;6.20;1.00
9885;DHT22;4981;50.966;4.842;2024-03-23T05:57:00;6.20;1.00
9885;DHT22;4981;50.966;4.842;2024-03-23T05:59:27;6.20;1.00
9885;DHT22;4981;50.966;4.842;2024-03-23T06:01:53;6.20;1.00
9885;DHT22;4981;50.966;4.842;2024-03-23T06:04:20;6.20;1.00
9885;DHT22;4981;50.966;4.842;2024-03-23T06:06:48;6.10;1.00
9885;DHT22;4981;50.966;4.842;2024-03-23T06:09:15;6.10;1.00
9885;DHT22;4981;50.966;4.842;2024-03-23T06:11:41;6.20;1.00
9885;DHT22;4981;50.966;4.842;2024-03-23T06:14:08;6.30;1.00
9885;DHT22;4981;50.966;4.842;2024-03-23T06:16:34;6.30;1.00
9885;DHT22;4981;50.966;4.842;2024-03-23T06:19:01;6.20;1.00
9885;DHT22;4981;50.966;4.842;2024-03-23T06:21:30;6.30;1.00
9885;DHT22;4981;50.966;4.842;2024-03-23T06:23:58;6.40;1.00
9885;DHT22;4981;50.966;4.842;2024-03-23T06:26:24;6.40;1.00
9885;DHT22;4981;50.966;4.842;2024-03-23T06:28:51;6.50;1.00
9885;DHT22;4981;50.966;4.842;2024-03-23T06:31:17;6.60;1.00
9885;DHT22;4981;50.966;4.842;2024-03-23T06:33:44;6.50;1.00
9885;DHT22;4981;50.966;4.842;2024-03-23T06:36:11;6.50;1.00
9885;DHT22;4981;50.966;4.842;2024-03-23T06:38:38;6.50;1.00
9885;DHT22;4981;50.966;4.842;2024-03-23T06:41:06;6.50;1.00
9885;DHT22;4981;50.966;4.842;2024-03-23T06:43:32;6.40;1.00
9885;DHT22;4981;50.966;4.842;2024-03-23T06:45:58;6.40;1.00
9885;DHT22;4981;50.966;4.842;2024-03-23T06:48:25;6.40;1.00
9885;DHT22;4981;50.966;4.842;2024-03-23T06:50:55;6.40;1.00
9885;DHT22;4981;50.966;4.842;2024-03-23T06:53:22;6.50;1.00
9885;DHT22;4981;50.966;4.842;2024-03-23T06:55:50;6.50;1.00
9885;DHT22;4981;50.966;4.842;2024-03-23T06:58:20;6.60;1.00
9885;DHT22;4981;50.966;4.842;2024-03-23T07:00:46;6.80;1.00
9885;DHT22;4981;50.966;4.842;2024-03-23T07:03:13;6.80;1.00
9885;DHT22;4981;50.966;4.842;2024-03-23T07:05:39;6.90;1.00
9885;DHT22;4981;50.966;4.842;2024-03-23T07:08:07;7.00;1.00
9885;DHT22;4981;50.966;4.842;2024-03-23T07:10:33;7.00;1.00
9885;DHT22;4981;50.966;4.842;2024-03-23T07:13:01;7.00;1.00
9885;DHT22;4981;50.966;4.842;2024-03-23T07:15:28;7.00;1.00
9885;DHT22;4981;50.966;4.842;2024-03-23T07:17:55;7.00;1.00
9885;DHT22;4981;50.966;4.842;2024-03-23T07:20:21;7.00;1.00
9885;DHT22;4981;50.966;4.842;2024-03-23T07:22:48;7.10;1.00
9885;DHT22;4981;50.966;4.842;2024-03-23T07:25:14;7.10;1.00
9885;DHT22;4981;50.966;4.842;2024-03-23T07:27:42;7.10;1.00
9885;DHT22;4981;50.966;4.842;2024-03-23T07:30:08;7.00;1.00
9885;DHT22;4981;50.966;4.842;2024-03-23T07:32:37;7.10;1.00
9885;DHT22;4981;50.966;4.842;2024-03-23T07:35:04;7.20;1.00
9885;DHT22;4981;50.966;4.842;2024-03-23T07:37:31;7.20;1.00
9885;DHT22;4981;50.966;4.842;2024-03-23T07:39:57;7.20;1.00
9885;DHT22;4981;50.966;4.842;2024-03-23T07:42:25;7.10;1.00
9885;DHT22;4981;50.966;4.842;2024-03-23T07:44:52;7.10;1.00
9885;DHT22;4981;50.966;4.842;2024-03-23T07:47:20;7.10;1.00
9885;DHT22;4981;50.966;4.842;2024-03-23T07:49:49;5.50;1.00
9885;DHT22;4981;50.966;4.842;2024-03-23T07:52:15;7.20;1.00
9885;DHT22;4981;50.966;4.842;2024-03-23T07:54:41;7.20;1.00
9885;DHT22;4981;50.966;4.842;2024-03-23T07:57:07;7.30;1.00
9885;DHT22;4981;50.966;4.842;2024-03-23T07:59:34;7.20;1.00
9885;DHT22;4981;50.966;4.842;2024-03-23T08:02:00;7.20;1.00
9885;DHT22;4981;50.966;4.842;2024-03-23T08:04:27;7.30;1.00
9885;DHT22;4981;50.966;4.842;2024-03-23T08:06:57;7.20;1.00
9885;DHT22;4981;50.966;4.842;2024-03-23T08:09:23;7.20;1.00
9885;DHT22;4981;50.966;4.842;2024-03-23T08:11:50;7.20;1.00
9885;DHT22;4981;50.966;4.842;2024-03-23T08:14:16;7.30;1.00
9885;DHT22;4981;50.966;4.842;2024-03-23T08:16:43;7.30;1.00
9885;DHT22;4981;50.966;4.842;2024-03-23T08:19:14;7.40;1.00
9885;DHT22;4981;50.966;4.842;2024-03-23T08:21:41;7.40;1.00
9885;DHT22;4981;50.966;4.842;2024-03-23T08:24:08;7.40;1.00
9885;DHT22;4981;50.966;4.842;2024-03-23T08:26:35;7.30;1.00
9885;DHT22;4981;50.966;4.842;2024-03-23T08:29:03;7.50;1.00
9885;DHT22;4981;50.966;4.842;2024-03-23T08:31:30;7.60;1.00
9885;DHT22;4981;50.966;4.842;2024-03-23T08:33:56;7.60;1.00
9885;DHT22;4981;50.966;4.842;2024-03-23T08:36:23;7.70;1.00
9885;DHT22;4981;50.966;4.842;2024-03-23T08:38:49;7.60;1.00
9885;DHT22;4981;50.966;4.842;2024-03-23T08:41:20;7.60;1.00
9885;DHT22;4981;50.966;4.842;2024-03-23T08:43:46;7.60;1.00
9885;DHT22;4981;50.966;4.842;2024-03-23T08:46:15;7.80;1.00
9885;DHT22;4981;50.966;4.842;2024-03-23T08:48:43;8.00;1.00
9885;DHT22;4981;50.966;4.842;2024-03-23T08:51:13;8.10;1.00
9885;DHT22;4981;50.966;4.842;2024-03-23T08:53:40;8.10;1.00
9885;DHT22;4981;50.966;4.842;2024-03-23T08:56:08;8.00;1.00
9885;DHT22;4981;50.966;4.842;2024-03-23T08:58:36;7.90;1.00
9885;DHT22;4981;50.966;4.842;2024-03-23T09:01:06;8.00;1.00
9885;DHT22;4981;50.966;4.842;2024-03-23T09:03:32;7.90;1.00
9885;DHT22;4981;50.966;4.842;2024-03-23T09:05:59;7.80;1.00
9885;DHT22;4981;50.966;4.842;2024-03-23T09:08:25;7.50;1.00
9885;DHT22;4981;50.966;4.842;2024-03-23T09:10:52;7.40;1.00
9885;DHT22;4981;50.966;4.842;2024-03-23T09:13:18;7.00;1.00
9885;DHT22;4981;50.966;4.842;2024-03-23T09:15:48;6.80;1.00
9885;DHT22;4981;50.966;4.842;2024-03-23T09:18:14;6.60;1.00
9885;DHT22;4981;50.966;4.842;2024-03-23T09:20:41;6.50;1.00
9885;DHT22;4981;50.966;4.842;2024-03-23T09:23:07;6.50;1.00
9885;DHT22;4981;50.966;4.842;2024-03-23T09:25:36;6.70;1.00
9885;DHT22;4981;50.966;4.842;2024-03-23T09:28:03;6.70;1.00
9885;DHT22;4981;50.966;4.842;2024-03-23T09:30:31;6.90;1.00
9885;DHT22;4981;50.966;4.842;2024-03-23T09:32:59;7.20;1.00
9885;DHT22;4981;50.966;4.842;2024-03-23T09:35:26;7.40;1.00
9885;DHT22;4981;50.966;4.842;2024-03-23T09:37:52;7.50;1.00
9885;DHT22;4981;50.966;4.842;2024-03-23T09:40:20;7.70;1.00
9885;DHT22;4981;50.966;4.842;2024-03-23T09:42:50;7.90;1.00
9885;DHT22;4981;50.966;4.842;2024-03-23T09:45:21;7.90;1.00
9885;DHT22;4981;50.966;4.842;2024-03-23T09:47:47;7.90;1.00
9885;DHT22;4981;50.966;4.842;2024-03-23T09:50:15;8.00;1.00
9885;DHT22;4981;50.966;4.842;2024-03-23T09:52:41;8.30;1.00
9885;DHT22;4981;50.966;4.842;2024-03-23T09:55:08;8.40;1.00
9885;DHT22;4981;50.966;4.842;2024-03-23T09:57:35;8.40;1.00
9885;DHT22;4981;50.966;4.842;2024-03-23T10:00:02;8.40;1.00
9885;DHT22;4981;50.966;4.842;2024-03-23T10:02:29;8.50;1.00
9885;DHT22;4981;50.966;4.842;2024-03-23T10:04:55;8.50;1.00
9885;DHT22;4981;50.966;4.842;2024-03-23T10:07:26;8.50;1.00
9885;DHT22;4981;50.966;4.842;2024-03-23T10:09:54;8.50;1.00
9885;DHT22;4981;50.966;4.842;2024-03-23T10:12:21;8.20;1.00
9885;DHT22;4981;50.966;4.842;2024-03-23T10:14:48;7.10;1.00
9885;DHT22;4981;50.966;4.842;2024-03-23T10:17:15;5.40;1.00
9885;DHT22;4981;50.966;4.842;2024-03-23T10:19:44;4.90;1.00
9885;DHT22;4981;50.966;4.842;2024-03-23T10:22:13;5.00;1.00
9885;DHT22;4981;50.966;4.842;2024-03-23T10:24:42;5.40;1.00
9885;DHT22;4981;50.966;4.842;2024-03-23T10:27:08;5.60;1.00
9885;DHT22;4981;50.966;4.842;2024-03-23T10:29:35;5.90;1.00
9885;DHT22;4981;50.966;4.842;2024-03-23T10:34:29;5.70;1.00
9885;DHT22;4981;50.966;4.842;2024-03-23T10:36:57;6.20;1.00
9885;DHT22;4981;50.966;4.842;2024-03-23T10:39:24;5.80;1.00
9885;DHT22;4981;50.966;4.842;2024-03-23T10:41:56;6.30;1.00
9885;DHT22;4981;50.966;4.842;2024-03-23T10:44:23;6.20;1.00
9885;DHT22;4981;50.966;4.842;2024-03-23T10:46:52;6.40;1.00
9885;DHT22;4981;50.966;4.842;2024-03-23T10:49:25;6.80;1.00
9885;DHT22;4981;50.966;4.842;2024-03-23T10:51:56;6.80;1.00
9885;DHT22;4981;50.966;4.842;2024-03-23T10:54:24;7.10;1.00
9885;DHT22;4981;50.966;4.842;2024-03-23T10:56:57;6.70;1.00
9885;DHT22;4981;50.966;4.842;2024-03-23T10:59:26;6.70;1.00
9885;DHT22;4981;50.966;4.842;2024-03-23T11:01:56;7.00;1.00
9885;DHT22;4981;50.966;4.842;2024-03-23T11:04:32;7.30;1.00
9885;DHT22;4981;50.966;4.842;2024-03-23T11:07:00;7.50;1.00
9885;DHT22;4981;50.966;4.842;2024-03-23T11:09:44;7.70;1.00
9885;DHT22;4981;50.966;4.842;2024-03-23T11:12:27;7.90;1.00
9885;DHT22;4981;50.966;4.842;2024-03-23T11:14:55;7.80;1.00
9885;DHT22;4981;50.966;4.842;2024-03-23T11:17:25;7.60;1.00
9885;DHT22;4981;50.966;4.842;2024-03-23T11:19:56;8.10;1.00
9885;DHT22;4981;50.966;4.842;2024-03-23T11:22:42;5.90;1.00
9885;DHT22;4981;50.966;4.842;2024-03-23T11:25:19;7.40;1.00
9885;DHT22;4981;50.966;4.842;2024-03-23T11:27:49;5.20;1.00
9885;DHT22;4981;50.966;4.842;2024-03-23T11:30:17;4.70;1.00
9885;DHT22;4981;50.966;4.842;2024-03-23T11:32:49;4.10;1.00
9885;DHT22;4981;50.966;4.842;2024-03-23T11:35:28;4.50;1.00
9885;DHT22;4981;50.966;4.842;2024-03-23T11:38:06;4.50;1.00
9885;DHT22;4981;50.966;4.842;2024-03-23T11:40:32;4.70;1.00
9885;DHT22;4981;50.966;4.842;2024-03-23T11:43:02;4.90;1.00
9885;DHT22;4981;50.966;4.842;2024-03-23T11:45:29;5.30;1.00
9885;DHT22;4981;50.966;4.842;2024-03-23T11:48:06;3.60;1.00
9885;DHT22;4981;50.966;4.842;2024-03-23T11:50:33;5.70;1.00
9885;DHT22;4981;50.966;4.842;2024-03-23T11:53:15;6.00;1.00
9885;DHT22;4981;50.966;4.842;2024-03-23T11:55:45;6.30;1.00
9885;DHT22;4981;50.966;4.842;2024-03-23T11:58:14;6.60;1.00
9885;DHT22;4981;50.966;4.842;2024-03-23T12:00:41;6.20;1.00
9885;DHT22;4981;50.966;4.842;2024-03-23T12:03:08;6.30;1.00
9885;DHT22;4981;50.966;4.842;2024-03-23T12:05:36;6.70;1.00
9885;DHT22;4981;50.966;4.842;2024-03-23T12:08:21;8.00;1.00
9885;DHT22;4981;50.966;4.842;2024-03-23T12:10:49;9.00;1.00
9885;DHT22;4981;50.966;4.842;2024-03-23T12:13:19;9.20;1.00
9885;DHT22;4981;50.966;4.842;2024-03-23T12:15:46;8.50;1.00
9885;DHT22;4981;50.966;4.842;2024-03-23T12:18:13;7.70;1.00
9885;DHT22;4981;50.966;4.842;2024-03-23T12:20:39;7.30;1.00
9885;DHT22;4981;50.966;4.842;2024-03-23T12:23:10;6.80;1.00
9885;DHT22;4981;50.966;4.842;2024-03-23T12:25:37;6.50;1.00
9885;DHT22;4981;50.966;4.842;2024-03-23T12:28:05;7.50;1.00
9885;DHT22;4981;50.966;4.842;2024-03-23T12:30:34;6.90;1.00
9885;DHT22;4981;50.966;4.842;2024-03-23T12:33:01;6.90;1.00
9885;DHT22;4981;50.966;4.842;2024-03-23T12:35:27;6.90;1.00
9885;DHT22;4981;50.966;4.842;2024-03-23T12:37:54;8.40;1.00
9885;DHT22;4981;50.966;4.842;2024-03-23T12:40:20;7.90;1.00
9885;DHT22;4981;50.966;4.842;2024-03-23T12:42:47;7.30;1.00
9885;DHT22;4981;50.966;4.842;2024-03-23T12:45:14;7.10;1.00
9885;DHT22;4981;50.966;4.842;2024-03-23T12:47:41;7.50;1.00
9885;DHT22;4981;50.966;4.842;2024-03-23T12:50:09;9.00;1.00
9885;DHT22;4981;50.966;4.842;2024-03-23T12:52:35;7.70;1.00
9885;DHT22;4981;50.966;4.842;2024-03-23T12:55:02;7.40;1.00
9885;DHT22;4981;50.966;4.842;2024-03-23T12:57:30;7.60;1.00
9885;DHT22;4981;50.966;4.842;2024-03-23T12:59:59;8.50;1.00
9885;DHT22;4981;50.966;4.842;2024-03-23T13:02:26;8.80;1.00
9885;DHT22;4981;50.966;4.842;2024-03-23T13:04:54;9.60;1.00
9885;DHT22;4981;50.966;4.842;2024-03-23T13:07:21;9.50;1.00
9885;DHT22;4981;50.966;4.842;2024-03-23T13:09:50;9.70;1.00
9885;DHT22;4981;50.966;4.842;2024-03-23T13:12:17;10.00;1.00
9885;DHT22;4981;50.966;4.842;2024-03-23T13:14:46;10.00;1.00
9885;DHT22;4981;50.966;4.842;2024-03-23T13:17:12;10.10;1.00
9885;DHT22;4981;50.966;4.842;2024-03-23T13:19:39;10.20;1.00
9885;DHT22;4981;50.966;4.842;2024-03-23T13:22:06;10.10;1.00
9885;DHT22;4981;50.966;4.842;2024-03-23T13:24:34;9.50;1.00
9885;DHT22;4981;50.966;4.842;2024-03-23T13:26:59;10.20;1.00
9885;DHT22;4981;50.966;4.842;2024-03-23T13:29:27;10.20;1.00
9885;DHT22;4981;50.966;4.842;2024-03-23T13:31:52;10.20;1.00
9885;DHT22;4981;50.966;4.842;2024-03-23T13:34:20;10.20;1.00
9885;DHT22;4981;50.966;4.842;2024-03-23T13:36:46;9.70;1.00
9885;DHT22;4981;50.966;4.842;2024-03-23T13:39:15;9.60;1.00
9885;DHT22;4981;50.966;4.842;2024-03-23T13:41:42;9.20;1.00
9885;DHT22;4981;50.966;4.842;2024-03-23T13:44:09;8.40;1.00
9885;DHT22;4981;50.966;4.842;2024-03-23T13:46:36;6.60;1.00
9885;DHT22;4981;50.966;4.842;2024-03-23T13:49:04;6.40;1.00
9885;DHT22;4981;50.966;4.842;2024-03-23T13:51:30;6.60;1.00
9885;DHT22;4981;50.966;4.842;2024-03-23T13:53:57;7.40;1.00
9885;DHT22;4981;50.966;4.842;2024-03-23T13:56:28;8.40;1.00
9885;DHT22;4981;50.966;4.842;2024-03-23T13:58:55;8.50;1.00
9885;DHT22;4981;50.966;4.842;2024-03-23T14:01:21;9.00;1.00
9885;DHT22;4981;50.966;4.842;2024-03-23T14:03:53;9.40;1.00
9885;DHT22;4981;50.966;4.842;2024-03-23T14:06:19;11.20;1.00
9885;DHT22;4981;50.966;4.842;2024-03-23T14:08:46;9.90;1.00
9885;DHT22;4981;50.966;4.842;2024-03-23T14:11:12;10.20;1.00
9885;DHT22;4981;50.966;4.842;2024-03-23T14:13:40;9.90;1.00
9885;DHT22;4981;50.966;4.842;2024-03-23T14:16:06;10.50;1.00
9885;DHT22;4981;50.966;4.842;2024-03-23T14:18:33;10.30;1.00
9885;DHT22;4981;50.966;4.842;2024-03-23T14:21:00;10.20;1.00
9885;DHT22;4981;50.966;4.842;2024-03-23T14:23:29;10.20;1.00
9885;DHT22;4981;50.966;4.842;2024-03-23T14:25:55;10.10;1.00
9885;DHT22;4981;50.966;4.842;2024-03-23T14:28:23;10.00;1.00
9885;DHT22;4981;50.966;4.842;2024-03-23T14:30:51;9.90;1.00
9885;DHT22;4981;50.966;4.842;2024-03-23T14:33:18;9.60;1.00
9885;DHT22;4981;50.966;4.842;2024-03-23T14:35:51;9.00;1.00
9885;DHT22;4981;50.966;4.842;2024-03-23T14:38:19;8.80;1.00
9885;DHT22;4981;50.966;4.842;2024-03-23T14:40:45;8.80;1.00
9885;DHT22;4981;50.966;4.842;2024-03-23T14:43:12;9.10;1.00
9885;DHT22;4981;50.966;4.842;2024-03-23T14:48:32;10.20;1.00
9885;DHT22;4981;50.966;4.842;2024-03-23T14:50:58;10.60;1.00
9885;DHT22;4981;50.966;4.842;2024-03-23T14:53:25;10.30;1.00
9885;DHT22;4981;50.966;4.842;2024-03-23T14:55:54;10.00;1.00
9885;DHT22;4981;50.966;4.842;2024-03-23T14:58:20;10.10;1.00
9885;DHT22;4981;50.966;4.842;2024-03-23T15:00:46;10.70;1.00
9885;DHT22;4981;50.966;4.842;2024-03-23T15:03:13;10.80;1.00
9885;DHT22;4981;50.966;4.842;2024-03-23T15:05:41;11.40;1.00
9885;DHT22;4981;50.966;4.842;2024-03-23T15:08:08;10.60;1.00
9885;DHT22;4981;50.966;4.842;2024-03-23T15:10:34;11.60;1.00
9885;DHT22;4981;50.966;4.842;2024-03-23T15:13:01;11.90;1.00
9885;DHT22;4981;50.966;4.842;2024-03-23T15:15:28;11.30;1.00
9885;DHT22;4981;50.966;4.842;2024-03-23T15:17:54;12.10;1.00
9885;DHT22;4981;50.966;4.842;2024-03-23T15:20:20;10.90;1.00
9885;DHT22;4981;50.966;4.842;2024-03-23T15:22:49;10.60;1.00
9885;DHT22;4981;50.966;4.842;2024-03-23T15:25:15;10.30;1.00
9885;DHT22;4981;50.966;4.842;2024-03-23T15:27:42;10.00;1.00
9885;DHT22;4981;50.966;4.842;2024-03-23T15:30:09;9.60;1.00
9885;DHT22;4981;50.966;4.842;2024-03-23T15:32:36;9.70;1.00
9885;DHT22;4981;50.966;4.842;2024-03-23T15:35:03;9.40;1.00
9885;DHT22;4981;50.966;4.842;2024-03-23T15:37:32;9.30;1.00
9885;DHT22;4981;50.966;4.842;2024-03-23T15:40:01;9.40;1.00
9885;DHT22;4981;50.966;4.842;2024-03-23T15:42:28;9.50;1.00
9885;DHT22;4981;50.966;4.842;2024-03-23T15:44:54;9.60;1.00
9885;DHT22;4981;50.966;4.842;2024-03-23T15:47:21;9.50;1.00
9885;DHT22;4981;50.966;4.842;2024-03-23T15:49:49;9.40;1.00
9885;DHT22;4981;50.966;4.842;2024-03-23T15:52:19;9.60;1.00
9885;DHT22;4981;50.966;4.842;2024-03-23T15:54:45;9.50;1.00
9885;DHT22;4981;50.966;4.842;2024-03-23T15:57:13;8.90;1.00
9885;DHT22;4981;50.966;4.842;2024-03-23T15:59:40;8.50;1.00
9885;DHT22;4981;50.966;4.842;2024-03-23T16:02:07;9.10;1.00
9885;DHT22;4981;50.966;4.842;2024-03-23T16:04:33;6.30;1.00
9885;DHT22;4981;50.966;4.842;2024-03-23T16:07:01;6.30;1.00
9885;DHT22;4981;50.966;4.842;2024-03-23T16:09:27;7.00;1.00
9885;DHT22;4981;50.966;4.842;2024-03-23T16:11:55;9.20;1.00
9885;DHT22;4981;50.966;4.842;2024-03-23T16:14:22;8.70;1.00
9885;DHT22;4981;50.966;4.842;2024-03-23T16:16:49;7.90;1.00
9885;DHT22;4981;50.966;4.842;2024-03-23T16:19:15;8.20;1.00
9885;DHT22;4981;50.966;4.842;2024-03-23T16:21:42;8.40;1.00
9885;DHT22;4981;50.966;4.842;2024-03-23T16:24:08;8.40;1.00
9885;DHT22;4981;50.966;4.842;2024-03-23T16:26:35;8.60;1.00
9885;DHT22;4981;50.966;4.842;2024-03-23T16:29:01;8.10;1.00
9885;DHT22;4981;50.966;4.842;2024-03-23T16:31:29;8.50;1.00
9885;DHT22;4981;50.966;4.842;2024-03-23T16:33:55;8.80;1.00
9885;DHT22;4981;50.966;4.842;2024-03-23T16:36:22;8.70;1.00
9885;DHT22;4981;50.966;4.842;2024-03-23T16:38:51;8.70;1.00
9885;DHT22;4981;50.966;4.842;2024-03-23T16:41:18;8.30;1.00
9885;DHT22;4981;50.966;4.842;2024-03-23T16:43:44;8.20;1.00
9885;DHT22;4981;50.966;4.842;2024-03-23T16:46:13;8.00;1.00
9885;DHT22;4981;50.966;4.842;2024-03-23T16:48:43;8.30;1.00
9885;DHT22;4981;50.966;4.842;2024-03-23T16:51:10;7.70;1.00
9885;DHT22;4981;50.966;4.842;2024-03-23T16:53:38;8.10;1.00
9885;DHT22;4981;50.966;4.842;2024-03-23T16:56:07;8.20;1.00
9885;DHT22;4981;50.966;4.842;2024-03-23T16:58:34;8.40;1.00
9885;DHT22;4981;50.966;4.842;2024-03-23T17:01:03;8.40;1.00
9885;DHT22;4981;50.966;4.842;2024-03-23T17:03:29;8.30;1.00
9885;DHT22;4981;50.966;4.842;2024-03-23T17:05:58;8.30;1.00
9885;DHT22;4981;50.966;4.842;2024-03-23T17:08:24;8.20;1.00
9885;DHT22;4981;50.966;4.842;2024-03-23T17:10:51;8.20;1.00
9885;DHT22;4981;50.966;4.842;2024-03-23T17:13:22;8.20;1.00
9885;DHT22;4981;50.966;4.842;2024-03-23T17:15:50;8.30;1.00
9885;DHT22;4981;50.966;4.842;2024-03-23T17:18:16;8.30;1.00
9885;DHT22;4981;50.966;4.842;2024-03-23T17:20:43;8.10;1.00
9885;DHT22;4981;50.966;4.842;2024-03-23T17:23:10;8.20;1.00
9885;DHT22;4981;50.966;4.842;2024-03-23T17:25:37;8.00;1.00
9885;DHT22;4981;50.966;4.842;2024-03-23T17:28:04;8.00;1.00
9885;DHT22;4981;50.966;4.842;2024-03-23T17:30:31;8.10;1.00
9885;DHT22;4981;50.966;4.842;2024-03-23T17:32:57;8.10;1.00
9885;DHT22;4981;50.966;4.842;2024-03-23T17:35:24;8.10;1.00